Paul Krause

Olheiro - RB Leipzig
17 Jul 2027
Sábado
Processo

Personalidade

Adaptabilidade (16) Ambição (13) Controvérsia (16) Lealdade (2) Pressão (16) Profissionalismo (9) Espírito Esportivo (19) Temperamento (6)

Perfil

Estilo de Treinamento Democrático
Licença Continental C
Determinação 6
Gestão de Pessoas 15
Motivação 16
Disciplina 16
Satisfação no Trabalho
100%
Fadiga
0%
Função Olheiro
Salário 95.3K p/s
Contrato 14.03.2029

Desempenho

Comportamento Bom
Eficácia do Treinamento
51%
Desenvolvimento do Jogador
55%
Prevenção de Lesões
45%
Implementação Tática
50%

Eventos Recentes

Participou de uma reunião de recrutamento 14d atrás
Participou de uma reunião de recrutamento 21d atrás
Participou de uma reunião de recrutamento 28d atrás
Participou de uma reunião de recrutamento 35d atrás
Avaliou um jogador 42d atrás
Participou de uma reunião de recrutamento 42d atrás
Apresentou um dossiê à direção 42d atrás
Avaliou um jogador 49d atrás

Monitorando agora

118
Jogador Clube Status Habilidade Confiança Observado Última observação Último voto
Mathys Tel Stade Rennais Ativo 145 / 142 40% 11 31.05.2027 -
Liam Delap Nottingham Forest Ativo 143 / 153 40% 5 31.05.2027 -
Hugo Ekitiké Liverpool Ativo 165 / 157 40% 4 31.05.2027 -
Ethan Williams Peterborough United Ativo 122 / 123 40% 9 30.05.2027 -
Fábio Silva Borussia Dortmund Ativo 148 / 137 40% 4 30.05.2027 -
Senny Mayulu Paris Saint-Germain Ativo 147 / 149 40% 9 30.05.2027 -
Thomas Jørgensen Toulouse FC Ativo 122 / 136 40% 1 30.05.2027 -
Mohamed-Ali Cho Hull City Ativo 127 / 139 40% 1 30.05.2027 -
Caleb Yirenkyi Coventry City Ativo 134 / 145 40% 2 27.05.2027 -
Ansu Fati Monaco Ativo 140 / 143 40% 3 26.05.2027 -
Karl Etta Eyong Levante Ativo 145 / 145 40% 3 26.05.2027 -
Paul Wanner PSV Ativo 140 / 139 40% 6 25.05.2027 -
Yusi Alavés Ativo 122 / 129 40% 6 24.05.2027 -
Gonzalo Fulham Ativo 148 / 143 40% 4 24.05.2027 -
Sindre Walle Egeli Nottingham Forest Ativo 137 / 141 40% 4 24.05.2027 -
Kenan Yıldız Juventus Ativo 155 / 168 40% 3 24.05.2027 -
Oumar Camara Vitoria Guimaraes Ativo 117 / 128 40% 2 24.05.2027 -
Saïd El Mala Köln Ativo 135 / 137 40% 9 22.05.2027 -
Ethan Mbappé LOSC Lille Ativo 126 / 139 40% 6 20.05.2027 -
Nikolaus Wurmbrand Heidenheim Ativo 111 / 120 40% 1 20.05.2027 -
Cyriaque Irié Borussia Mönchengladbach Ativo 125 / 131 40% 2 19.05.2027 -
Oscar Schwartau Norwich City Ativo 126 / 131 40% 5 19.05.2027 -
Givairo Read Feyenoord Ativo 149 / 154 40% 4 18.05.2027 -
Christian Kofane Bayer Leverkusen Ativo 141 / 146 40% 2 18.05.2027 -
Othmane Maamma Watford Ativo 128 / 129 40% 9 16.05.2027 -
Santiago Castro AS Roma Ativo 153 / 145 40% 5 14.05.2027 -
Pablo Felipe West Ham United Ativo 142 / 136 40% 1 14.05.2027 -
Christos Mouzakitis Hull City Ativo 125 / 137 40% 2 09.05.2027 -
Héctor Fort Real Sociedad Ativo 133 / 140 40% 5 08.05.2027 -
Jorrel Hato Chelsea Ativo 142 / 158 40% 10 08.05.2027 -
Warren Zaïre-Emery Paris Saint-Germain Ativo 151 / 158 40% 6 07.05.2027 -
Assane Diao Como Ativo 149 / 144 40% 16 03.05.2027 -
Maximilian Beier Borussia Dortmund Perdido 147 / 145 40% 5 03.05.2027 -
Fábio Carvalho Brentford Ativo 139 / 143 40% 4 27.04.2027 -
Samu Aghehowa Girona Ativo 146 / 153 40% 2 27.04.2027 -
Stanis Idumbo FC Metz Ativo 124 / 134 40% 3 26.04.2027 -
Benjamin Šeško Manchester United Ativo 151 / 159 40% 2 22.04.2027 -
Emanuel Emegha Chelsea Ativo 145 / 136 40% 2 22.04.2027 -
Roger Fernandes Al-Ittihad Ativo 145 / 129 40% 7 20.04.2027 -
David Mella Deportivo La Coruña Ativo 125 / 136 40% 4 20.04.2027 -
Bazoumana Touré Newcastle United Ativo 138 / 145 40% 2 20.04.2027 -
Chemsdine Talbi Sunderland Ativo 137 / 148 40% 7 15.04.2027 -
Mamadou Diakhon Club Brugge Ativo 123 / 127 40% 5 15.04.2027 -
Mfundo Vilakazi Kaizer Chiefs Ativo 103 / 124 40% 1 08.04.2027 -
Roberto Fernández Braga Ativo 141 / 145 40% 2 07.04.2027 -
Fisnik Asllani TSG Hoffenheim Perdido 131 / 138 40% 1 05.04.2027 -
Adnan Carrasco FC Nantes Ativo 149 / 164 40% 1 31.03.2027 -
Morgan Rogers Chelsea Ativo 155 / 160 40% 1 23.03.2027 -
Hirving Salcedo Veracruz Ativo 126 / 140 40% 1 18.03.2027 -
Can Uzun Eintracht Frankfurt Ativo 136 / 146 40% 7 17.03.2027 -
Matheus Gonçalves Al-Ahli Ativo 136 / 132 40% 1 17.03.2027 -
Jack Hinshelwood Brighton Ativo 146 / 147 40% 2 12.03.2027 -
Bradley Barcola Liverpool Ativo 170 / 156 40% 1 12.03.2027 -
Malick Fofana Sunderland Ativo 146 / 151 40% 3 09.03.2027 -
Christantus Uche Getafe Ativo 131 / 144 40% 1 08.03.2027 -
Williot Swedberg Celta Ativo 137 / 140 40% 1 05.03.2027 -
Mexx Meerdink Feyenoord Ativo 136 / 137 40% 1 02.03.2027 -
Nico O'Reilly Manchester City Ativo 151 / 163 40% 4 27.02.2027 -
Nacer Mignolet KV Oostende Ativo 133 / 137 40% 2 26.02.2027 -
Arda Güler Real Madrid Ativo 152 / 149 40% 4 19.02.2027 -
Jan Virgili Club Brugge Ativo 139 / 141 40% 1 19.02.2027 -
Kirill Glebov CSKA Moscow Ativo 140 / 135 40% 2 09.02.2027 -
Dehmaine Tabibou FC Nantes Ativo 127 / 131 40% 1 03.02.2027 -
Iliman N'Diaye Everton Ativo 159 / 152 40% 2 11.01.2027 -
Rodrigo Muniz Fulham Ativo 143 / 134 40% 1 31.12.2026 -
Ferran Torres Paris Saint-Germain Ativo 161 / 161 40% 1 31.12.2026 -
Christoph Wober Mattersburg Ativo 113 / 113 40% 5 29.12.2026 -
Georges Mikautadze FC Augsburg Ativo 154 / 152 40% 2 27.12.2026 -
Ez Abde Betis Ativo 158 / 154 40% 1 27.12.2026 -
Eliesse Ben Seghir Bayer Leverkusen Ativo 126 / 140 40% 4 24.12.2026 -
Karl Hein Werder Bremen Ativo 143 / 146 40% 5 22.12.2026 -
Bobby Clark Derby County Ativo 113 / 123 40% 3 22.12.2026 -
Mio Backhaus SC Freiburg Ativo 133 / 132 40% 1 22.12.2026 -
Brandon Austin Feyenoord Ativo 125 / 131 40% 3 19.12.2026 -
El Hadji Malick Diouf Brentford Ativo 140 / 148 40% 2 19.12.2026 -
Joan García Bayern Munich Ativo 165 / 170 40% 1 19.12.2026 -
Michael Cooper Sheffield United Ativo 132 / 123 40% 1 18.12.2026 -
Ibrahim Salah Basel Ativo 118 / 125 40% 1 17.12.2026 -
Juan-José Perea Zurich Ativo 115 / 119 40% 1 16.12.2026 -
Josh Keeley Luton Town Ativo 130 / 125 40% 2 12.12.2026 -
Robin Risser RC Lens Ativo 132 / 136 40% 2 11.12.2026 -
Niklas Hedl Rapid Wien Ativo 121 / 124 40% 3 11.12.2026 -
Georginio Rutter Manchester City Ativo 144 / 152 40% 2 11.12.2026 -
Pascal Loretz Luzern Ativo 126 / 123 40% 1 10.12.2026 -
Đorđe Petrović Bournemouth Ativo 150 / 148 40% 1 10.12.2026 -
Antonín Kinský VfB Stuttgart Ativo 149 / 145 40% 1 07.12.2026 -
Fodé Sylla Sion Ativo 106 / 124 40% 1 06.12.2026 -
Jorge Pascual Granada Ativo 126 / 139 40% 1 04.12.2026 -
Gabriel Martinelli Arsenal Ativo 168 / 160 40% 1 04.12.2026 -
Niklas Steffen Thun Ativo 110 / 118 40% 2 29.11.2026 -
Mads Hermansen West Ham United Ativo 131 / 141 40% 1 29.11.2026 -
Igor Jesus Nottingham Forest Ativo 136 / 136 40% 1 29.11.2026 -
Julen Agirrezabala Racing Santander Ativo 149 / 149 40% 1 27.11.2026 -
Grégoire Coudert Burnley Ativo 128 / 123 40% 1 27.11.2026 -
Jonas Harder Basel Ativo 105 / 118 40% 1 25.11.2026 -
Kai Havertz Arsenal Ativo 169 / 160 40% 1 21.11.2026 -
Didier Robert FC Augsburg Ativo 145 / 143 40% 1 21.11.2026 -
Leon Grgić Sturm Graz Ativo 118 / 122 40% 3 20.11.2026 -
Noah Sadiki Sunderland Ativo 147 / 147 40% 2 20.11.2026 -
Badredine Bouanani Borussia Dortmund Ativo 124 / 137 40% 3 19.11.2026 -
Lukas Gütlbauer Wolfsberger AC Ativo 125 / 120 40% 2 18.11.2026 -
Christian Früchtl Red Bull Salzburg Ativo 113 / 113 40% 2 18.11.2026 -
Anthony Racioppi Grasshopper Ativo 117 / 126 40% 1 18.11.2026 -
Marvin Keller Racing Genk Ativo 131 / 140 40% 1 17.11.2026 -
Ben Voll St. Pauli Ativo 120 / 116 40% 1 15.11.2026 -
Furkan Demir Rapid Wien Ativo 112 / 127 40% 2 14.11.2026 -
Désiré Doué Paris Saint-Germain Ativo 168 / 171 40% 3 13.11.2026 -
Mihailo Ivanović Millwall Ativo 124 / 123 40% 2 12.11.2026 -
Bryan Mbeumo Manchester United Ativo 160 / 151 40% 1 12.11.2026 -
Brennan Johnson Everton Ativo 151 / 146 40% 1 09.11.2026 -
Antoine Semenyo Manchester City Ativo 163 / 162 40% 1 09.11.2026 -
Caoimhin Kelleher Heidenheim Ativo 149 / 151 40% 3 08.11.2026 -
Carl Rushworth Coventry City Ativo 141 / 130 40% 1 06.11.2026 -
Sanel Šaljić Austria Wien Ativo 110 / 124 40% 3 02.11.2026 -
Samuel Marques Grasshopper Ativo 107 / 120 40% 2 01.11.2026 -
Ilyas Ansah Hull City Ativo 124 / 138 40% 4 24.10.2026 -
Jobe Bellingham Borussia Dortmund Ativo 142 / 138 40% 1 18.10.2026 -
Leo Sauer VfB Stuttgart Ativo 132 / 141 40% 1 07.10.2026 -